Menomonie, WI (54751)

7:52 PM CST on February 06, 2016 (GMT -0600)
Elmwood Park | | Change Station
CLOSE
Current Station
Personal Weather Station
Location: Menomonie, WI
Elevation: 876 ft
Nearby Weather Stations

Elev 876 ft 44.88 °N, 91.91 °W | Updated 2 minutes ago

Overcast
Overcast
30.4 °F
Feels Like 23 °F
N
7.3
Wind Variable Wind from SW

Today
High -- | Low -- °F
--% Chance of Precip.
Yesterday
High -- | Low -- °F
Precip. -- in
Pressure 29.88 in
Visibility 10.0 miles
Clouds Scattered Clouds 7500 ft
Overcast 10000 ft
Windchill 23 °F
Dew Point 26 °F
Humidity 83%
Rainfall 0.02 in
Snow Depth Not available.
7:21 AM 5:22 PM
Waning Crescent, 3% visible
METAR KLUM 070135Z AUTO 17009G16KT 10SM SCT075 OVC100 00/M04 A2988 RMK AO2 T00001037
Pressure 29.88 in
Visibility 10.0 miles
Clouds Scattered Clouds 7500 ft
Overcast 10000 ft
Windchill 23 °F
Dew Point 26 °F
Humidity 83%
Rainfall 0.02 in
Snow Depth Not available.
7:21 AM 5:22 PM
Waning Crescent, 3% visible
METAR KLUM 070135Z AUTO 17009G16KT 10SM SCT075 OVC100 00/M04 A2988 RMK AO2 T00001037

10-Day Weather Forecast

Almanac

Astronomy

Feb. 06, 2016 Rise Set
Actual Time
Civil Twilight
Nautical Twilight
Astronomical Twilight
Moon
Length of Visible Light
Length of Day
Tomorrow will be .
, % of the Moon is Illuminated

Today's Extremes

State Highs State Lows

Community

WunderPhotos

Upload Photos

1,891,123 photos uploaded!

WunderBlog® & News

Nearby

Air Quality

  Air Quality AQ Index Pollutant
Not available.

Snow Depth

Station Depth Elevation

Earthquake Activity

City Distance Mag. Time & Date
Minimum magnitude displayed is 2.5.

Coastal Water Temperatures

Place Temperature

Stations

Nearby Weather Stations

Station Location Temp. Windchill Dew Point Humidity Wind Precip. Elev Updated Type
                   

Watches & Warnings

There are currently no watches in effect.